Airfield :
LOGIN :

Register | Disclaimer

   EN    FR    IT 

 










Legend :    VFR   Marginal VFR   IFR   Intensive IFR   Very Intensive IFR
Visi :
Ceiling :
>= 8 km
>= 3000ft
5 to 8 km
1000 to 3000 ft
1500m to 5 km
500 to 1000 ft
800 to 1500m
200 to 500 ft
< 800m
< 200 ft
Symbols :   Thunderstorms  Fog  Heavy snow  Heavy precipitations  Wind > 20 kt
SIGMETs :     Misc.  Thunderstorms  Icing  Turbulence  Mountain Waves  Volcanic Ashes







- Airport Elevation : 2265 ft
- IATA code : CZL


DABC - Mohamed Boudiaf Int. Constantine

CURRENT METAR :
  • 230300Z 34006KT 310V020 9999 FEW016 SCT023 12/09 Q1021

EXPIRED METARs :
  • 230230Z 32005KT 9999 FEW016 SCT023 12/09 Q1021
  • 230200Z 33007KT 9999 FEW016 SCT023 12/09 Q1021
  • 230130Z 32009KT 9999 FEW016 SCT023 12/08 Q1021
  • 230100Z 31006KT 9999 FEW016 SCT023 12/09 Q1022
  • 230030Z 30007KT 9999 FEW016 SCT023 13/09 Q1022

TAF TAF DABC
Valid from the 23 at 00:00 until the 24 at 00:00 UTC


222300Z 2300/2324 34010KT 9999 FEW020TCU SCT026
TEMPO 2300/2309 VRB02KT 2000 BR BKN006
PROB30
TEMPO 2302/2308 0400 FG BKN003
PROB30
TEMPO 2309/2318 5000 -RA
No reported NOTAMs for that airfield.
1 SIGMET reported for the Alger FIR (DAAA) :
 
Severe turbulence
DAAA SIGMET 1 VALID 230030/230230 DAMM
DAAA ALGER FIR SEV TURB FCST WI N3904 E00426 - N3521 E00827 - N3358 E00727 - N2937 E00940 - N3641 W00011 - N3904 E00426 TOP FL260/380 STNR WKN=



MET'MAP, your aeronautical weather chart ! - Copyright ORBIFLY December 2007 - Disclaimer

ORBIFLY MET'MAP TEAM :

Programming & Development : Alexandra Zaïnal
Concept & Development : Baudouin d'Aumeries
Co-Development & Prog : Marc-Olivier Méhu
Technical & hardware support : Manuel Goepfert

Contact : metmap@orbifly.com




SOURCES & CREDITS :

   NOAA